createdAt,value
2018-08-23T00:19:53.003Z,0.00
2018-08-23T00:21:35.130Z,0.00
2018-08-23T00:54:11.963Z,0.00
2018-08-23T00:55:54.037Z,0.00
2018-08-23T01:06:48.747Z,0.00
2018-08-23T01:07:48.722Z,0.00
2018-08-23T01:08:48.704Z,0.00
2018-08-23T01:09:48.677Z,0.00
2018-08-23T03:01:53.329Z,0.00
2018-08-23T03:02:53.098Z,0.00
2018-08-23T03:03:53.275Z,0.00
2018-08-23T03:04:53.052Z,0.00
2018-08-23T03:05:53.029Z,0.00
2018-08-23T03:06:53.203Z,0.00
2018-08-23T03:07:52.973Z,0.00
2018-08-23T03:08:52.949Z,0.00
2018-08-23T03:09:52.924Z,0.00
2018-08-23T03:10:52.899Z,0.00
2018-08-23T03:11:52.885Z,0.00
2018-08-23T03:12:52.851Z,0.00
2018-08-23T03:14:35.187Z,0.00
2018-08-23T03:16:18.119Z,0.00
2018-08-23T03:31:40.751Z,0.00
2018-08-23T03:43:50.839Z,0.00
2018-08-23T03:54:15.542Z,0.00
2018-08-23T03:55:57.067Z,0.00
2018-08-23T04:06:22.829Z,11.25
2018-08-23T04:07:25.831Z,11.25
2018-08-23T04:17:06.417Z,33.75
2018-08-23T04:22:06.080Z,45.00
2018-08-23T04:27:06.570Z,56.25
2018-08-23T04:29:07.516Z,67.50
2018-08-23T04:30:06.712Z,67.50
2018-08-23T04:34:07.626Z,84.38
2018-08-23T04:37:05.933Z,90.00
2018-08-23T05:15:24.655Z,241.88
2018-08-23T05:23:06.734Z,258.75
2018-08-23T05:27:05.560Z,253.13
2018-08-23T05:28:04.532Z,247.50
2018-08-23T05:31:04.658Z,258.75
2018-08-23T05:45:04.134Z,461.25
2018-08-23T06:15:36.373Z,461.25
2018-08-23T06:16:35.943Z,472.50
2018-08-23T06:17:35.921Z,472.50
2018-08-23T06:18:36.101Z,466.88
2018-08-23T06:19:40.905Z,466.88
2018-08-23T06:51:25.729Z,618.75
2018-08-23T06:52:26.107Z,635.63
2018-08-23T07:15:38.207Z,894.38
2018-08-23T07:18:02.899Z,888.75
2018-08-23T07:19:04.894Z,939.38
2018-08-23T07:30:17.950Z,995.63
2018-08-23T07:33:25.521Z,1057.50
2018-08-23T07:34:21.664Z,1074.38
2018-08-23T07:35:21.441Z,1096.88
2018-08-23T07:36:21.420Z,1091.25
2018-08-23T07:37:21.399Z,1046.25
2018-08-23T07:38:21.378Z,1012.50
2018-08-23T07:39:21.505Z,995.63
2018-08-23T07:42:48.448Z,1063.13
2018-08-23T07:43:45.609Z,1113.75
2018-08-23T07:46:10.095Z,1181.25
2018-08-23T07:47:09.871Z,1220.63
2018-08-23T07:48:09.878Z,1243.13
2018-08-23T07:49:09.830Z,1209.38
2018-08-23T07:50:09.815Z,1147.50
2018-08-23T07:51:09.837Z,1198.13
2018-08-23T07:52:09.769Z,1603.13
2018-08-23T07:53:09.845Z,2019.38
2018-08-23T07:54:09.729Z,2058.75
2018-08-23T07:55:09.708Z,1940.63
2018-08-23T07:56:09.690Z,2070.00
2018-08-23T08:02:04.956Z,2103.75
2018-08-23T08:03:04.942Z,2081.25
2018-08-23T08:04:04.919Z,2081.25
2018-08-23T08:08:35.676Z,2227.50
2018-08-23T08:09:35.865Z,2266.88
2018-08-23T08:10:35.641Z,2244.38
2018-08-23T08:11:35.621Z,2221.88
2018-08-23T08:12:35.402Z,2323.13
2018-08-23T08:25:32.250Z,2548.13
2018-08-23T08:26:32.228Z,2480.63
2018-08-23T08:41:35.372Z,1771.88
2018-08-23T08:42:35.138Z,2390.63
2018-08-23T08:44:17.483Z,1681.88
2018-08-23T08:45:17.279Z,1473.75
2018-08-23T08:46:17.447Z,1558.13
2018-08-23T08:47:17.432Z,1400.63
2018-08-23T08:48:17.217Z,1468.13
2018-08-23T08:49:59.555Z,1546.88
2018-08-23T08:50:59.539Z,2103.75
2018-08-23T08:51:59.322Z,2598.75
2018-08-23T08:52:59.303Z,1670.63
2018-08-23T08:53:59.289Z,1918.13
2018-08-23T08:54:59.470Z,2542.50
2018-08-23T08:55:59.252Z,2666.25
2018-08-23T08:56:59.480Z,2615.63
2018-08-23T08:57:59.421Z,2784.38
2018-08-23T08:58:59.404Z,2671.88
2018-08-23T08:59:59.425Z,2739.38
2018-08-23T09:00:59.572Z,2784.38
2018-08-23T09:01:59.353Z,2716.88
2018-08-23T09:02:59.409Z,2677.50
2018-08-23T09:03:59.118Z,2030.63
2018-08-23T09:04:59.304Z,1687.50
2018-08-23T09:05:59.289Z,2778.75
2018-08-23T09:06:59.070Z,2266.88
2018-08-23T09:07:59.054Z,2407.50
2018-08-23T09:08:59.042Z,1974.38
2018-08-23T09:09:59.225Z,2261.25
2018-08-23T09:10:59.007Z,1721.25
2018-08-23T09:11:58.990Z,2401.88
2018-08-23T09:12:58.975Z,2036.25
2018-08-23T09:13:59.161Z,2008.13
2018-08-23T09:14:59.144Z,2469.38
2018-08-23T09:15:58.928Z,2525.63
2018-08-23T09:16:58.911Z,1552.50
2018-08-23T09:17:58.895Z,2401.88
2018-08-23T09:18:58.878Z,2986.88
2018-08-23T09:19:58.866Z,3341.25
2018-08-23T09:21:41.818Z,2992.50
2018-08-23T09:22:41.192Z,3121.88
2018-08-23T09:24:23.335Z,3015.00
2018-08-23T09:25:23.413Z,2660.63
2018-08-23T09:26:23.306Z,2131.88
2018-08-23T09:27:23.088Z,1636.88
2018-08-23T09:28:23.072Z,1501.88
2018-08-23T09:29:23.061Z,1361.25
2018-08-23T09:30:23.042Z,1395.00
2018-08-23T09:31:23.027Z,1597.50
2018-08-23T09:32:23.012Z,2255.63
2018-08-23T09:33:23.198Z,2176.88
2018-08-23T09:34:23.189Z,1479.38
2018-08-23T09:35:22.968Z,1395.00
2018-08-23T09:36:22.951Z,2790.00
2018-08-23T09:37:22.956Z,3076.88
2018-08-23T09:38:22.920Z,1687.50
2018-08-23T09:39:22.903Z,1569.38
2018-08-23T09:40:22.887Z,1681.88
2018-08-23T09:41:22.876Z,1839.38
2018-08-23T09:42:22.866Z,2992.50
2018-08-23T09:43:22.841Z,1845.00
2018-08-23T09:44:22.831Z,1665.00
2018-08-23T09:45:22.811Z,2908.13
2018-08-23T09:46:22.801Z,1822.50
2018-08-23T09:47:22.780Z,1541.25
2018-08-23T09:48:22.761Z,1490.63
2018-08-23T09:49:22.744Z,1490.63
2018-08-23T09:50:22.930Z,2098.13
2018-08-23T09:51:22.716Z,2379.38
2018-08-23T09:52:22.758Z,3060.00
2018-08-23T09:53:22.678Z,2621.25
2018-08-23T09:54:22.662Z,3386.25
2018-08-23T09:55:22.856Z,2368.13
2018-08-23T09:56:22.632Z,3639.38
2018-08-23T09:57:22.616Z,2176.88
2018-08-23T09:58:22.600Z,2694.38
2018-08-23T09:59:22.784Z,2053.13
2018-08-23T10:00:22.772Z,2182.50
2018-08-23T10:01:22.550Z,1912.50
2018-08-23T10:02:22.531Z,2171.25
2018-08-23T10:03:22.514Z,1811.25
2018-08-23T10:04:22.556Z,2086.88
2018-08-23T10:05:22.486Z,3380.63
2018-08-23T10:06:22.465Z,3369.38
2018-08-23T10:07:22.453Z,1890.00
2018-08-23T10:08:22.440Z,1620.00
2018-08-23T10:09:22.415Z,2818.13
2018-08-23T10:10:22.400Z,2542.50
2018-08-23T10:11:22.479Z,3076.88
2018-08-23T10:12:22.370Z,1597.50
2018-08-23T10:13:22.351Z,1462.50
2018-08-23T10:14:22.544Z,1406.25
2018-08-23T10:15:22.523Z,1406.25
2018-08-23T10:17:04.662Z,2452.50
2018-08-23T10:18:04.444Z,1929.38
2018-08-23T10:19:04.628Z,2244.38
2018-08-23T10:20:04.409Z,1490.63
2018-08-23T10:21:04.595Z,3549.38
2018-08-23T10:22:04.575Z,3538.13
2018-08-23T10:23:04.559Z,3510.00
2018-08-23T10:24:04.339Z,3510.00
2018-08-23T10:25:07.349Z,3498.75
2018-08-23T10:26:04.507Z,3391.88
2018-08-23T10:27:04.491Z,3363.75
2018-08-23T10:28:04.475Z,3352.50
2018-08-23T10:29:04.254Z,3622.50
2018-08-23T10:30:04.238Z,3616.88
2018-08-23T10:31:04.227Z,3763.13
2018-08-23T10:32:04.233Z,3943.13
2018-08-23T10:33:04.194Z,4061.25
2018-08-23T10:34:04.174Z,4021.88
2018-08-23T10:35:04.367Z,3870.00
2018-08-23T10:36:04.144Z,2525.63
2018-08-23T10:37:04.330Z,2013.75
2018-08-23T10:38:04.123Z,1816.88
2018-08-23T10:39:04.098Z,1625.63
2018-08-23T10:40:04.285Z,1755.00
2018-08-23T10:41:04.071Z,1558.13
2018-08-23T10:42:04.054Z,3391.88
2018-08-23T10:43:04.035Z,1653.75
2018-08-23T10:44:04.045Z,1681.88
2018-08-23T10:45:04.016Z,1541.25
2018-08-23T10:46:03.986Z,1867.50
2018-08-23T10:47:03.970Z,1710.00
2018-08-23T10:48:03.954Z,1591.88
2018-08-23T10:49:03.938Z,1603.13
2018-08-23T10:50:03.924Z,1665.00
2018-08-23T10:51:03.998Z,2891.25
2018-08-23T10:52:03.901Z,2092.50
2018-08-23T10:53:03.882Z,3369.38
2018-08-23T10:54:03.853Z,3948.75
2018-08-23T10:55:03.836Z,3583.13
2018-08-23T10:56:03.820Z,2711.25
2018-08-23T10:57:03.811Z,1614.38
2018-08-23T10:58:03.796Z,1721.25
2018-08-23T10:59:03.836Z,1890.00
2018-08-23T11:00:03.753Z,1794.38
2018-08-23T11:01:03.737Z,1811.25
2018-08-23T11:02:03.719Z,1856.25
2018-08-23T11:03:03.705Z,1822.50
2018-08-23T11:04:03.692Z,3510.00
2018-08-23T11:05:03.675Z,2351.25
2018-08-23T11:06:03.659Z,3819.38
2018-08-23T11:07:03.636Z,3751.88
2018-08-23T11:08:03.621Z,3915.00
2018-08-23T11:09:03.601Z,3915.00
2018-08-23T11:10:03.587Z,2221.88
2018-08-23T11:11:03.570Z,1783.13
2018-08-23T11:12:03.554Z,1833.75
2018-08-23T11:13:03.541Z,3189.38
2018-08-23T11:14:03.521Z,4016.25
2018-08-23T11:15:03.506Z,4038.75
2018-08-23T11:16:03.489Z,3690.00
2018-08-23T11:17:03.617Z,3774.38
2018-08-23T11:18:03.462Z,3886.88
2018-08-23T11:19:03.442Z,3999.38
2018-08-23T11:20:03.426Z,2064.38
2018-08-23T11:21:03.421Z,2081.25
2018-08-23T11:22:03.396Z,3003.75
2018-08-23T11:23:03.424Z,2700.00
2018-08-23T11:24:03.363Z,3656.25
2018-08-23T11:25:03.349Z,3571.88
2018-08-23T11:26:03.335Z,3701.25
2018-08-23T11:27:03.321Z,3600.00
2018-08-23T11:28:03.504Z,3718.13
2018-08-23T11:29:03.488Z,1861.88
2018-08-23T11:30:03.390Z,1569.38
2018-08-23T11:31:03.460Z,1625.63
2018-08-23T11:32:03.240Z,3217.50
2018-08-23T11:33:03.225Z,3746.25
2018-08-23T11:34:03.210Z,2013.75
2018-08-23T11:35:03.256Z,3661.88
2018-08-23T11:36:03.179Z,1788.75
2018-08-23T11:37:03.164Z,3043.13
2018-08-23T11:38:03.148Z,3881.25
2018-08-23T11:39:03.133Z,3780.00
2018-08-23T11:40:03.118Z,3819.38
2018-08-23T11:41:03.104Z,3729.38
2018-08-23T11:42:03.589Z,3757.50
2018-08-23T11:43:03.276Z,3690.00
2018-08-23T11:44:03.063Z,1828.13
2018-08-23T11:45:03.047Z,2098.13
2018-08-23T11:46:03.030Z,3881.25
2018-08-23T11:47:03.016Z,2272.50
2018-08-23T11:48:03.001Z,1996.88
2018-08-23T11:49:02.986Z,1906.88
2018-08-23T11:50:02.972Z,3020.63
2018-08-23T11:51:02.959Z,2930.63
2018-08-23T11:52:02.942Z,3780.00
2018-08-23T11:53:03.006Z,3285.00
2018-08-23T11:54:02.913Z,2829.38
2018-08-23T11:55:02.894Z,3633.75
2018-08-23T11:56:02.878Z,3256.88
2018-08-23T11:57:02.863Z,3183.75
2018-08-23T11:58:02.889Z,1676.25
2018-08-23T11:59:02.888Z,1743.75
2018-08-23T12:00:03.670Z,1867.50
2018-08-23T12:01:02.807Z,3757.50
2018-08-23T12:02:02.785Z,2086.88
2018-08-23T12:03:02.780Z,2013.75
2018-08-23T12:04:02.754Z,3060.00
2018-08-23T12:05:02.741Z,3841.88
2018-08-23T12:06:02.730Z,2255.63
2018-08-23T12:07:02.710Z,3645.00
2018-08-23T12:08:02.691Z,3931.88
2018-08-23T12:09:02.675Z,3757.50
2018-08-23T12:10:02.667Z,3555.00
2018-08-23T12:11:02.645Z,2013.75
2018-08-23T12:12:02.635Z,1591.88
2018-08-23T12:13:02.615Z,1726.88
2018-08-23T12:14:02.600Z,2463.75
2018-08-23T12:15:02.584Z,1726.88
2018-08-23T12:16:02.638Z,1946.25
2018-08-23T12:17:02.554Z,3628.13
2018-08-23T12:18:02.541Z,3099.38
2018-08-23T12:19:02.524Z,2750.63
2018-08-23T12:20:02.509Z,1805.63
2018-08-23T12:21:02.493Z,1940.63
2018-08-23T12:22:02.481Z,2520.00
2018-08-23T12:23:02.461Z,1653.75
2018-08-23T12:24:02.446Z,2885.63
2018-08-23T12:25:02.432Z,3493.13
2018-08-23T12:26:02.556Z,3526.88
2018-08-23T12:27:02.402Z,1687.50
2018-08-23T12:28:02.384Z,1546.88
2018-08-23T12:29:02.368Z,1642.50
2018-08-23T12:30:02.351Z,1906.88
2018-08-23T12:31:02.336Z,3245.63
2018-08-23T12:32:02.320Z,2430.00
2018-08-23T12:33:02.304Z,1822.50
2018-08-23T12:34:02.315Z,1507.50
2018-08-23T12:35:04.896Z,3133.13
2018-08-23T12:36:02.255Z,2013.75
2018-08-23T12:37:02.240Z,2064.38
2018-08-23T12:38:02.308Z,3549.38
2018-08-23T12:39:02.206Z,3532.50
2018-08-23T12:40:02.189Z,3481.88
2018-08-23T12:41:02.235Z,3493.13
2018-08-23T12:42:02.159Z,2626.88
2018-08-23T12:43:02.149Z,3408.75
2018-08-23T15:41:02.351Z,1338.75
2018-08-23T15:41:59.356Z,1417.50
2018-08-23T15:42:59.344Z,1451.25
2018-08-23T15:43:59.519Z,1451.25
2018-08-23T15:44:59.299Z,1462.50
2018-08-23T15:45:59.296Z,1423.13
2018-08-23T15:46:59.313Z,1423.13
2018-08-23T15:47:59.270Z,1428.75
2018-08-23T15:48:59.228Z,1366.88
2018-08-23T15:49:59.210Z,1378.13
2018-08-23T15:50:59.210Z,1395.00
2018-08-23T15:51:59.175Z,1395.00
2018-08-23T15:52:59.157Z,1406.25
2018-08-23T15:53:59.143Z,1395.00
2018-08-23T15:54:59.225Z,1350.00
2018-08-23T15:55:59.274Z,1361.25
2018-08-23T15:56:59.098Z,1383.75
2018-08-23T15:57:59.073Z,1366.88
2018-08-23T15:58:59.053Z,1321.88
2018-08-23T15:59:59.035Z,1350.00
2018-08-23T16:00:59.017Z,1355.63
2018-08-23T16:01:59.002Z,1327.50
2018-08-23T16:02:58.982Z,1288.13
2018-08-23T16:03:58.965Z,1305.00
2018-08-23T16:04:58.948Z,1321.88
2018-08-23T16:05:58.929Z,1350.00
2018-08-23T16:06:58.913Z,1338.75
2018-08-23T16:07:58.895Z,1344.38
2018-08-23T16:08:58.878Z,1299.38
2018-08-23T16:09:58.868Z,1243.13
2018-08-23T16:10:58.843Z,1181.25
2018-08-23T16:11:58.826Z,1243.13
2018-08-23T16:12:58.811Z,1265.63
2018-08-23T16:13:58.795Z,1254.38
2018-08-23T16:14:58.774Z,1175.63
2018-08-23T16:15:59.007Z,1153.13
2018-08-23T16:16:58.943Z,1125.00
2018-08-23T16:17:58.739Z,1170.00
2018-08-23T16:18:58.702Z,1119.38
2018-08-23T16:19:58.685Z,1102.50
2018-08-23T16:20:58.668Z,1063.13
2018-08-23T16:26:11.792Z,1018.13
2018-08-23T16:27:11.570Z,967.50
2018-08-23T16:28:53.910Z,1023.75
2018-08-23T16:29:53.691Z,1018.13
2018-08-23T16:30:53.877Z,1046.25
2018-08-23T16:31:53.904Z,1035.00
2018-08-23T16:34:18.151Z,1018.13
2018-08-23T16:35:18.134Z,1018.13
2018-08-23T16:36:18.114Z,1006.88
2018-08-23T16:37:18.096Z,990.00
2018-08-23T16:38:18.079Z,978.75
2018-08-23T16:39:17.855Z,984.38
2018-08-23T16:43:06.667Z,933.75
2018-08-23T16:44:06.443Z,905.63
2018-08-23T16:59:51.891Z,534.38
2018-08-23T17:00:51.868Z,523.13
2018-08-23T17:01:51.647Z,517.50
2018-08-23T17:02:51.627Z,511.88
2018-08-23T17:03:51.607Z,495.00
2018-08-23T17:04:51.598Z,483.75
2018-08-23T17:05:51.568Z,472.50
2018-08-23T17:06:51.750Z,466.88
2018-08-23T17:07:51.531Z,455.63
2018-08-23T17:08:51.508Z,450.00
2018-08-23T17:09:51.489Z,438.75
2018-08-23T17:10:51.471Z,433.13
2018-08-23T17:12:33.816Z,421.88
2018-08-23T17:13:33.790Z,416.25
2018-08-23T17:14:33.568Z,410.63
2018-08-23T17:15:33.750Z,399.38
2018-08-23T17:16:33.530Z,388.13
2018-08-23T17:17:33.706Z,376.88
2018-08-23T17:18:33.680Z,371.25
2018-08-23T17:19:33.465Z,360.00
2018-08-23T17:20:33.449Z,354.38
2018-08-23T17:21:33.626Z,348.75
2018-08-23T17:22:33.405Z,348.75
2018-08-23T17:23:33.385Z,343.13
2018-08-23T17:24:33.466Z,337.50
2018-08-23T17:25:33.355Z,326.25
2018-08-23T17:26:33.324Z,320.63
2018-08-23T17:27:33.306Z,309.38
2018-08-23T17:28:33.284Z,303.75
2018-08-23T17:29:33.263Z,298.13
2018-08-23T17:30:33.263Z,292.50
2018-08-23T17:31:33.222Z,275.63
2018-08-23T17:32:33.202Z,264.38
2018-08-23T17:33:33.383Z,253.13
2018-08-23T17:34:33.168Z,247.50
2018-08-23T17:35:33.343Z,236.25
2018-08-23T17:36:33.121Z,225.00
2018-08-23T17:37:33.301Z,213.75
2018-08-23T17:38:36.307Z,202.50
2018-08-23T17:39:33.263Z,202.50
2018-08-23T17:40:33.039Z,196.88
2018-08-23T17:41:33.017Z,196.88
2018-08-23T17:42:33.198Z,196.88
2018-08-23T17:43:33.179Z,196.88
2018-08-23T17:44:33.160Z,191.25
2018-08-23T17:45:33.138Z,185.63
2018-08-23T17:46:35.741Z,185.63
2018-08-23T17:47:32.899Z,185.63
2018-08-23T17:48:33.025Z,180.00
2018-08-23T17:49:32.960Z,174.38
2018-08-23T17:50:33.034Z,168.75
2018-08-23T17:51:33.014Z,163.13
2018-08-23T17:52:32.788Z,163.13
2018-08-23T17:53:32.970Z,157.50
2018-08-23T17:54:32.949Z,157.50
2018-08-23T17:55:32.744Z,151.88
2018-08-23T17:56:35.531Z,146.25
2018-08-23T17:57:32.884Z,140.63
2018-08-23T17:58:32.661Z,135.00
2018-08-23T17:59:32.676Z,135.00
2018-08-23T18:00:32.620Z,129.38
2018-08-23T18:01:32.799Z,123.75
2018-08-23T18:02:32.578Z,118.13
2018-08-23T18:03:32.556Z,112.50
2018-08-23T18:04:32.535Z,112.50
2018-08-23T18:05:32.513Z,106.88
2018-08-23T18:06:32.498Z,101.25
2018-08-23T18:07:32.474Z,101.25
2018-08-23T18:08:32.450Z,95.63
2018-08-23T18:09:32.630Z,90.00
2018-08-23T18:10:32.407Z,84.38
2018-08-23T18:11:32.385Z,84.38
2018-08-23T18:12:32.363Z,78.75
2018-08-23T18:13:32.342Z,78.75
2018-08-23T18:14:32.524Z,73.13
2018-08-23T18:15:32.505Z,73.13
2018-08-23T18:16:32.278Z,67.50
2018-08-23T18:17:32.257Z,61.88
2018-08-23T18:18:32.239Z,61.88
2018-08-23T18:19:32.224Z,56.25
2018-08-23T18:20:32.237Z,50.63
2018-08-23T18:21:32.171Z,50.63
2018-08-23T18:22:33.161Z,45.00
2018-08-23T18:23:32.337Z,39.38
2018-08-23T18:24:32.109Z,39.38
2018-08-23T18:25:32.145Z,33.75
2018-08-23T18:26:32.073Z,33.75
2018-08-23T18:27:32.046Z,28.13
2018-08-23T18:28:32.024Z,28.13
2018-08-23T18:29:31.999Z,22.50
2018-08-23T18:30:32.180Z,22.50
2018-08-23T18:31:31.957Z,22.50
2018-08-23T18:32:32.054Z,16.88
2018-08-23T18:33:32.229Z,16.88
2018-08-23T18:34:31.891Z,16.88
2018-08-23T18:35:31.873Z,11.25
2018-08-23T18:36:32.051Z,11.25
2018-08-23T18:44:33.556Z,5.63
2018-08-23T18:45:33.331Z,0.00
2018-08-23T18:46:33.511Z,0.00
2018-08-23T18:47:33.287Z,0.00
2018-08-23T18:48:33.265Z,0.00
2018-08-23T18:49:33.241Z,0.00
2018-08-23T18:50:33.222Z,0.00
2018-08-23T18:51:33.198Z,0.00
2018-08-23T18:52:33.176Z,0.00
2018-08-23T18:53:33.152Z,0.00
2018-08-23T18:54:33.131Z,0.00
2018-08-23T18:55:33.109Z,0.00
2018-08-23T18:56:33.087Z,0.00
2018-08-23T18:57:33.064Z,0.00
2018-08-23T18:58:33.042Z,0.00
2018-08-23T18:59:33.027Z,0.00
2018-08-23T19:00:32.999Z,0.00
2018-08-23T19:01:32.976Z,0.00
2018-08-23T19:02:32.960Z,0.00
2018-08-23T19:03:32.935Z,0.00
2018-08-23T19:04:32.912Z,0.00
2018-08-23T19:05:32.894Z,0.00
2018-08-23T19:06:32.874Z,0.00
2018-08-23T19:07:32.844Z,0.00
2018-08-23T19:08:32.822Z,0.00
2018-08-23T19:09:32.799Z,0.00
2018-08-23T19:10:32.777Z,0.00
2018-08-23T19:11:32.761Z,0.00
2018-08-23T19:12:32.737Z,0.00
2018-08-23T19:13:32.773Z,0.00
2018-08-23T19:14:32.689Z,0.00
2018-08-23T19:15:32.667Z,0.00
2018-08-23T19:16:32.650Z,0.00
2018-08-23T19:17:32.623Z,0.00
2018-08-23T19:18:32.633Z,0.00
2018-08-23T19:19:32.579Z,0.00
2018-08-23T19:20:32.557Z,0.00
2018-08-23T19:21:32.534Z,0.00
2018-08-23T19:22:32.513Z,0.00
2018-08-23T19:23:32.491Z,0.00
2018-08-23T19:24:32.473Z,0.00
2018-08-23T19:25:32.446Z,0.00
2018-08-23T19:26:32.424Z,0.00
2018-08-23T19:27:32.403Z,0.00
2018-08-23T19:28:32.381Z,0.00
2018-08-23T19:29:32.358Z,0.00
